MTPP Informações do Aeroporto

Informações da Pista
Pista 10 Comprimento 9974 ft Largura 141 ft
Elevação 79 ft Limite 0 ft Heading 87
Pista 28 Comprimento 9974 ft Largura 141 ft
Elevação 122 ft Limite 0 ft Heading 267
Frequências do Aeroporto
Tipo APP Nome APP Frequência 119.8 MHZ
Tipo TWR Nome TWR Frequência 118.3 MHZ
Navaids do Aeroporto
Tipo NDB Nome Port Au Prince Frequência 270 KHZ
Tipo VOR-DME Nome Port Au Prince Frequência 115300 KHZ
Informações meteorológicas do aeroporto e NOTAM
ADDS - METARS form results

(0725 UTC 25 September 2020)
Data provider http://aviationweather.gov/metar/data/
 
METAR text: MTPP 250659Z AUTO 13007KT 9000 ////// 28/25 Q1014 A2996 NOSIG
Conditions at: MTPP (PORT-AU-PRINCE , HT) observed 0659 UTC 25 September 2020
Temperature: 28.0°C (82°F)
Dewpoint: 25.0°C (77°F) [RH = 84%]
Pressure (altimeter): 29.94 inches Hg (1014.0 mb)
Winds: from the SE (130 degrees) at 8 MPH (7 knots; 3.6 m/s)
Visibility: 6 miles ( 9 km)
Ceiling: unknown
Clouds: missing
Weather: no significant weather observed at this time